Etusivu
METAR-TAF:

METAR-TAF

Lentoasemat :

Eau Claire, Wisconsin, Yhdysvallat

Leveyspiiri: 44-51-55N, Pituuspiiri: 091-29-06W, korkeus merenpinnasta: 277 m

Tämänhetkinen sää

Tämä raportti tehtiin 50 minuuttia sitten, kello 15.56 UTC
Tuuli 3 kn etelästä/lounaasta
Lämpötila 2°C
Kosteus 51%
Ilmanpaine 1026 hPa
Näkyvyys: 16.1 km
selkeää

METAR: KEAU 301556Z 21003KT 10SM CLR 02/M07 A3030 RMK AO2 SLP271 T00171067

Aika: 11:46 (16:46 UTC)

Sääennuste

Tämä raportti tehtiin 1 tunti ja 54 minuuttia sitten, kello 14.52 UTC
Ennuste voimassa 30. päivästä klo 15 UTC - 31. päivään klo 12 UTC
Tuuli kn pohjoisesta
Näkyvyys: 10 km
Muutamia pilviä 6000 ft:n korkeudessa
From 30. päivästä klo 1900 UTC
Tuuli 5 kn etelästä/kaakosta
Näkyvyys: 10 km
selkeää
From 31. päivästä klo 1000 UTC
Tuuli 11 kn etelästä/kaakosta
Näkyvyys: 10 km
selkeää

TAF: KEAU 301452Z 3015/3112 00000KT P6SM FEW060 FM301900 15005KT P6SM SKC FM311000 15011KT P6SM SKC WS020/18045KT

Säähavainnot ja -ennusteet yli 4000 lentoasemalta (METAR- ja TAF-raportit).

Käytössä olevat sääasemat on merkitty karttaan keltaisilla ja punaisilla pisteillä.

Aseta hiiri pisteen päälle nähdäksesi sääaseman nimen.

Klikkaa sitten nähdäksesi säähavainnot ja -ennusteet.

Kartan vaihtaminen: klikkaa mustalla rastilla varustettuja vihreitä pisteitä, niin voit zoomata sisään; viivalla varustettua vihreää pistettä, niin voit zoomata ulos tai vihreitä nuolia, niin pääset viereisille kartoille.


METAR-TAF: